Time;durP1;ratioP1;P1;durP2;ratioP2;P2;SDS_P1;SDS_P2;PMS_P1;PMS_P2;Temp;Humidity;BMP_temperature;BMP_pressure;BME280_temperature;BME280_humidity;BME280_pressure;Samples;Min_cycle;Max_cycle;Signal;HPM_P1;HPM_P2
2023/10/22 00:02:06;;;;;;;0.10;0.10;;;17.10;99.90;;;;;;5079864;28;20024;-76
2023/10/22 00:04:32;;;;;;;0.10;0.10;;;17.00;99.90;;;;;;5079485;28;20483;-74
2023/10/22 00:07:00;;;;;;;0.47;0.47;;;17.10;99.90;;;;;;5079277;28;20036;-74
2023/10/22 00:09:26;;;;;;;0.10;0.10;;;17.10;99.90;;;;;;5079894;28;20382;-74
2023/10/22 00:11:52;;;;;;;0.10;0.10;;;17.20;99.90;;;;;;5079872;28;20498;-74
2023/10/22 00:14:18;;;;;;;0.10;0.10;;;17.40;99.90;;;;;;5079884;28;20023;-78
2023/10/22 00:16:43;;;;;;;0.10;0.10;;;17.60;99.90;;;;;;5079795;28;20103;-74
2023/10/22 00:19:09;;;;;;;0.10;0.10;;;17.70;99.90;;;;;;5079931;28;20304;-73
2023/10/22 00:21:35;;;;;;;0.10;0.10;;;17.80;99.90;;;;;;5079404;28;20638;-74
2023/10/22 00:24:01;;;;;;;0.10;0.10;;;17.80;99.90;;;;;;5079559;28;20358;-80
2023/10/22 00:26:26;;;;;;;0.32;0.32;;;17.80;99.90;;;;;;5079646;28;20020;-74
2023/10/22 00:28:52;;;;;;;0.57;0.57;;;17.70;99.90;;;;;;5079524;28;20036;-74
2023/10/22 00:31:18;;;;;;;2.38;2.22;;;17.70;99.90;;;;;;5080510;28;20044;-74
2023/10/22 00:33:44;;;;;;;0.30;0.30;;;17.60;99.90;;;;;;5081158;28;20036;-74
2023/10/22 00:36:09;;;;;;;0.10;0.10;;;17.60;99.90;;;;;;5079937;28;20024;-74
2023/10/22 00:38:35;;;;;;;0.20;0.20;;;17.60;99.90;;;;;;5062154;28;20024;-74
2023/10/22 00:41:01;;;;;;;0.10;0.10;;;17.60;99.90;;;;;;5080119;28;20103;-74
2023/10/22 00:43:27;;;;;;;0.10;0.10;;;17.70;99.90;;;;;;5079375;28;20044;-75
2023/10/22 00:45:53;;;;;;;0.20;0.20;;;17.70;99.90;;;;;;5079692;28;20498;-76
2023/10/22 00:48:21;;;;;;;0.10;0.10;;;15.70;99.90;;;;;;5079331;28;20028;-74
2023/10/22 00:50:47;;;;;;;0.10;0.10;;;17.60;99.90;;;;;;5079293;28;20410;-74
2023/10/22 00:53:16;;;;;;;0.10;0.10;;;17.50;99.90;;;;;;5079902;28;20028;-76
2023/10/22 00:55:46;;;;;;;0.65;0.65;;;17.50;99.90;;;;;;5079468;28;20304;-76
2023/10/22 00:58:16;;;;;;;0.75;0.75;;;17.40;99.90;;;;;;5079514;28;20107;-77
2023/10/22 01:00:44;;;;;;;4.55;0.68;;;17.30;99.90;;;;;;5078653;28;20093;-75
2023/10/22 01:03:10;;;;;;;0.38;0.38;;;17.20;99.90;;;;;;5079217;28;20471;-74
2023/10/22 01:05:39;;;;;;;0.10;0.10;;;17.20;99.90;;;;;;5078707;28;20047;-74
2023/10/22 01:08:05;;;;;;;0.10;0.10;;;17.20;99.90;;;;;;5078656;28;20020;-73
2023/10/22 01:10:32;;;;;;;0.10;0.10;;;17.20;99.90;;;;;;5078617;28;20121;-73
2023/10/22 01:12:59;;;;;;;0.88;0.88;;;17.20;99.90;;;;;;5078615;28;20017;-80
2023/10/22 01:15:24;;;;;;;0.10;0.10;;;17.30;99.90;;;;;;5078486;28;20016;-77
2023/10/22 01:17:50;;;;;;;0.10;0.10;;;17.30;99.90;;;;;;5077694;28;20023;-76
2023/10/22 01:20:16;;;;;;;0.10;0.10;;;17.10;99.90;;;;;;5078163;28;20212;-76
2023/10/22 01:22:42;;;;;;;31.80;3.72;;;17.30;99.90;;;;;;5078352;28;20024;-79
2023/10/22 01:25:08;;;;;;;10.32;4.38;;;17.40;99.90;;;;;;5078568;28;20031;-73
2023/10/22 01:27:34;;;;;;;0.20;0.20;;;17.50;99.90;;;;;;5078269;28;20035;-74
2023/10/22 01:30:00;;;;;;;0.10;0.10;;;17.40;99.90;;;;;;5078399;28;20028;-75
2023/10/22 01:32:30;;;;;;;0.10;0.10;;;17.40;99.90;;;;;;5078012;28;20067;-76
2023/10/22 01:35:00;;;;;;;0.77;0.77;;;17.40;99.90;;;;;;5059637;28;20224;-74
2023/10/22 01:37:26;;;;;;;0.10;0.10;;;17.50;99.90;;;;;;5078102;28;20012;-76
2023/10/22 01:39:52;;;;;;;0.17;0.17;;;17.20;99.90;;;;;;5078033;28;20043;-78
2023/10/22 01:42:18;;;;;;;0.17;0.17;;;17.60;99.90;;;;;;5077828;28;20009;-76
2023/10/22 01:44:44;;;;;;;0.10;0.10;;;17.60;99.90;;;;;;5077798;28;20028;-76
2023/10/22 01:47:13;;;;;;;0.10;0.10;;;17.60;99.90;;;;;;5077837;28;20031;-77
2023/10/22 01:49:39;;;;;;;0.10;0.10;;;17.50;99.90;;;;;;5077883;28;20028;-76
2023/10/22 01:52:05;;;;;;;0.10;0.10;;;17.50;99.90;;;;;;5059025;28;20150;-74
2023/10/22 01:54:31;;;;;;;0.10;0.10;;;17.60;99.90;;;;;;5059576;28;20514;-75
2023/10/22 01:56:57;;;;;;;0.10;0.10;;;17.40;99.90;;;;;;5077913;28;20099;-76
2023/10/22 01:59:23;;;;;;;0.10;0.10;;;17.40;99.90;;;;;;5077966;28;20224;-75
2023/10/22 02:01:48;;;;;;;0.10;0.10;;;17.30;99.90;;;;;;5077880;28;20104;-75
2023/10/22 02:04:14;;;;;;;0.10;0.10;;;17.40;99.90;;;;;;5077656;28;20012;-75
2023/10/22 02:06:40;;;;;;;0.10;0.10;;;17.30;99.90;;;;;;5077855;28;20510;-76
2023/10/22 02:09:06;;;;;;;0.50;0.50;;;17.50;99.90;;;;;;5077857;28;20072;-76
2023/10/22 02:11:32;;;;;;;0.10;0.10;;;17.50;99.90;;;;;;5077710;28;20020;-76
2023/10/22 02:13:58;;;;;;;0.10;0.10;;;17.40;99.90;;;;;;5077695;28;20514;-77
2023/10/22 02:16:24;;;;;;;0.65;0.65;;;17.40;99.90;;;;;;5078026;28;20020;-76
2023/10/22 02:18:50;;;;;;;0.10;0.10;;;17.40;99.90;;;;;;5077670;28;20020;-75
2023/10/22 02:21:16;;;;;;;0.32;0.32;;;17.40;99.90;;;;;;5077928;28;20255;-79
2023/10/22 02:23:42;;;;;;;0.30;0.30;;;20.60;99.90;;;;;;5077749;28;20012;-75
2023/10/22 02:26:08;;;;;;;3.92;2.55;;;17.50;99.90;;;;;;5077472;28;20016;-77
2023/10/22 02:28:34;;;;;;;0.10;0.10;;;17.40;99.90;;;;;;5077288;28;20021;-80
2023/10/22 02:31:00;;;;;;;0.10;0.10;;;17.40;99.90;;;;;;5077284;28;20635;-75
2023/10/22 02:33:26;;;;;;;0.10;0.10;;;17.50;99.90;;;;;;5077338;28;20048;-74
2023/10/22 02:35:52;;;;;;;3.08;2.92;;;17.50;99.90;;;;;;5077442;28;20024;-75
2023/10/22 02:38:18;;;;;;;0.10;0.10;;;17.40;99.90;;;;;;5077320;28;20669;-75
2023/10/22 02:40:48;;;;;;;0.10;0.10;;;17.40;99.90;;;;;;5077353;28;20036;-74
2023/10/22 02:43:15;;;;;;;0.10;0.10;;;17.30;99.90;;;;;;5077722;28;20024;-73
2023/10/22 02:45:51;;;;;;;0.10;0.10;;;17.30;99.90;;;;;;5077138;28;20177;-73
2023/10/22 02:48:17;;;;;;;0.10;0.10;;;17.90;99.90;;;;;;5077249;28;20307;-77
2023/10/22 02:50:43;;;;;;;0.10;0.10;;;17.20;99.90;;;;;;5077177;28;20021;-77
2023/10/22 02:53:09;;;;;;;2.83;1.55;;;17.20;99.90;;;;;;5077329;28;20050;-76
2023/10/22 02:55:35;;;;;;;12.77;11.70;;;17.20;99.90;;;;;;5077471;28;20024;-74
2023/10/22 02:58:00;;;;;;;0.10;0.10;;;17.20;99.90;;;;;;5077775;28;20024;-79
2023/10/22 03:00:27;;;;;;;0.10;0.10;;;17.20;99.90;;;;;;5078424;28;20032;-74
2023/10/22 03:02:53;;;;;;;0.10;0.10;;;17.20;99.90;;;;;;5077785;28;20035;-75
2023/10/22 03:05:19;;;;;;;0.10;0.10;;;17.10;99.90;;;;;;5077271;28;20024;-74
2023/10/22 03:07:44;;;;;;;0.10;0.10;;;17.00;99.90;;;;;;5077422;28;20023;-74
2023/10/22 03:10:10;;;;;;;0.10;0.10;;;17.00;99.90;;;;;;5077211;28;20547;-79
2023/10/22 03:12:36;;;;;;;0.10;0.10;;;17.00;99.90;;;;;;5077295;28;20346;-76
2023/10/22 03:15:03;;;;;;;0.10;0.10;;;17.00;99.90;;;;;;5077355;28;20111;-74
2023/10/22 03:17:30;;;;;;;0.10;0.10;;;17.00;99.90;;;;;;5077302;28;20410;-76
2023/10/22 03:19:56;;;;;;;0.10;0.10;;;17.00;99.90;;;;;;5076919;28;20102;-75
2023/10/22 03:22:22;;;;;;;0.10;0.10;;;17.00;99.90;;;;;;5076997;28;20044;-75
2023/10/22 03:24:51;;;;;;;0.10;0.10;;;17.00;99.90;;;;;;5077015;28;20028;-74
2023/10/22 03:27:17;;;;;;;0.82;0.82;;;17.00;99.90;;;;;;5076856;28;20030;-74
2023/10/22 03:29:46;;;;;;;0.20;0.20;;;17.00;99.90;;;;;;5077652;28;20036;-74
2023/10/22 03:32:12;;;;;;;0.35;0.35;;;17.10;99.90;;;;;;5077427;28;20044;-75
2023/10/22 03:34:38;;;;;;;0.10;0.10;;;17.10;99.90;;;;;;5077683;28;20085;-74
2023/10/22 03:37:08;;;;;;;0.10;0.10;;;17.10;99.90;;;;;;5059275;28;20224;-76
2023/10/22 03:39:36;;;;;;;4.07;3.47;;;17.10;99.90;;;;;;5077211;28;20028;-75
2023/10/22 03:42:02;;;;;;;0.10;0.10;;;17.10;99.90;;;;;;5078476;28;20027;-75
2023/10/22 03:44:29;;;;;;;0.28;0.28;;;17.10;99.90;;;;;;5062026;28;20020;-74
2023/10/22 03:46:55;;;;;;;0.08;0.08;;;17.10;99.90;;;;;;5080458;28;20099;-74
2023/10/22 03:49:21;;;;;;;2.70;2.50;;;17.10;99.90;;;;;;5061891;28;20028;-74
2023/10/22 03:51:46;;;;;;;0.10;0.10;;;17.10;99.90;;;;;;5061997;28;20016;-75
2023/10/22 03:54:12;;;;;;;0.10;0.10;;;17.10;99.90;;;;;;5080314;28;20020;-74
2023/10/22 03:56:38;;;;;;;0.10;0.10;;;17.10;99.90;;;;;;5080220;28;20055;-75
2023/10/22 03:59:04;;;;;;;0.10;0.10;;;17.10;99.90;;;;;;5080160;28;20032;-82
2023/10/22 04:01:29;;;;;;;0.10;0.10;;;17.00;99.90;;;;;;5080191;28;20081;-76
2023/10/22 04:03:55;;;;;;;0.32;0.32;;;16.90;99.90;;;;;;5079934;28;20541;-78
2023/10/22 04:06:21;;;;;;;0.10;0.10;;;16.90;99.90;;;;;;5080053;28;20039;-75
2023/10/22 04:08:47;;;;;;;1.65;1.55;;;16.90;99.90;;;;;;5080184;28;20046;-74
2023/10/22 04:11:12;;;;;;;0.20;0.20;;;16.80;99.90;;;;;;5081140;28;20028;-74
2023/10/22 04:13:38;;;;;;;0.60;0.43;;;16.60;99.90;;;;;;5080677;28;20456;-73
2023/10/22 04:16:04;;;;;;;0.10;0.10;;;16.50;99.90;;;;;;5080312;28;20498;-77
2023/10/22 04:18:30;;;;;;;0.10;0.10;;;16.40;99.90;;;;;;5081003;28;20192;-74
2023/10/22 04:20:56;;;;;;;0.10;0.10;;;16.50;99.90;;;;;;5080291;28;20194;-76
2023/10/22 04:23:22;;;;;;;0.10;0.10;;;16.40;99.90;;;;;;5061283;28;20028;-75
2023/10/22 04:25:47;;;;;;;0.10;0.10;;;16.30;99.90;;;;;;5079885;28;20378;-75
2023/10/22 04:28:15;;;;;;;0.10;0.10;;;16.20;99.90;;;;;;5079659;28;20463;-75
2023/10/22 04:30:45;;;;;;;0.10;0.10;;;16.20;99.90;;;;;;5079638;28;20020;-74
2023/10/22 04:33:11;;;;;;;0.10;0.10;;;16.10;99.90;;;;;;5079315;28;20055;-74
2023/10/22 04:35:38;;;;;;;0.10;0.10;;;16.00;99.90;;;;;;5079207;28;20216;-74
2023/10/22 04:38:03;;;;;;;0.10;0.10;;;15.90;99.90;;;;;;5079410;28;20067;-76
2023/10/22 04:40:33;;;;;;;3.72;3.58;;;15.90;99.90;;;;;;5079451;28;20064;-78
2023/10/22 04:42:59;;;;;;;0.10;0.10;;;15.90;99.90;;;;;;5079357;28;20220;-74
2023/10/22 04:45:25;;;;;;;0.30;0.30;;;16.00;99.90;;;;;;5079238;28;20676;-74
2023/10/22 04:47:51;;;;;;;2.42;2.22;;;16.00;99.90;;;;;;5079117;28;20020;-76
2023/10/22 04:50:17;;;;;;;1.02;0.95;;;16.00;99.90;;;;;;5079594;28;20028;-74
2023/10/22 04:52:43;;;;;;;4.55;3.63;;;;;;;;;;5079427;28;20016;-77
2023/10/22 04:55:12;;;;;;;0.10;0.10;;;16.00;99.90;;;;;;5079756;28;20027;-76
2023/10/22 04:57:38;;;;;;;0.10;0.10;;;15.90;99.90;;;;;;5079073;28;20304;-77
2023/10/22 05:00:08;;;;;;;0.10;0.10;;;16.00;99.90;;;;;;5078932;28;20225;-74
2023/10/22 05:02:34;;;;;;;0.10;0.10;;;16.00;99.90;;;;;;5078981;28;20254;-78
2023/10/22 05:05:00;;;;;;;0.03;0.03;;;15.90;99.90;;;;;;5060720;28;20142;-76
2023/10/22 05:07:26;;;;;;;0.20;0.20;;;15.90;99.90;;;;;;5079121;28;20034;-76
2023/10/22 05:09:52;;;;;;;0.10;0.10;;;15.80;99.90;;;;;;5078596;28;20028;-75
2023/10/22 05:12:17;;;;;;;0.10;0.10;;;15.80;99.90;;;;;;5078897;28;20031;-75
2023/10/22 05:14:43;;;;;;;0.10;0.10;;;15.80;99.90;;;;;;5060066;28;20088;-78
2023/10/22 05:17:09;;;;;;;0.47;0.47;;;15.70;99.90;;;;;;5078574;28;20035;-77
2023/10/22 05:19:35;;;;;;;0.10;0.10;;;15.80;99.90;;;;;;5078284;28;20073;-74
2023/10/22 05:22:01;;;;;;;6.80;6.50;;;16.00;99.90;;;;;;5078188;28;20027;-74
2023/10/22 05:24:27;;;;;;;0.10;0.10;;;15.90;99.90;;;;;;5078473;28;20430;-74
2023/10/22 05:26:53;;;;;;;0.10;0.10;;;15.90;99.90;;;;;;5078290;28;20526;-76
2023/10/22 05:29:19;;;;;;;0.10;0.10;;;15.80;99.90;;;;;;5078522;28;20111;-75
2023/10/22 05:31:45;;;;;;;0.10;0.10;;;15.80;99.90;;;;;;5077918;28;20678;-76
2023/10/22 05:34:10;;;;;;;0.38;0.38;;;15.60;99.90;;;;;;5078384;28;20024;-75
2023/10/22 05:36:36;;;;;;;0.20;0.20;;;15.50;99.90;;;;;;5078679;28;20495;-77
2023/10/22 05:39:02;;;;;;;0.10;0.10;;;15.50;99.90;;;;;;5060123;28;20034;-75
2023/10/22 05:41:28;;;;;;;0.10;0.10;;;15.50;99.90;;;;;;5078645;28;20024;-75
2023/10/22 05:44:01;;;;;;;0.10;0.10;;;15.60;99.90;;;;;;5078306;28;20509;-75
2023/10/22 05:46:36;;;;;;;0.10;0.10;;;16.50;99.90;;;;;;5078414;28;20024;-75
2023/10/22 05:49:03;;;;;;;0.10;0.10;;;15.60;99.90;;;;;;5078176;28;20103;-78
2023/10/22 05:51:29;;;;;;;2.10;1.35;;;15.60;99.90;;;;;;5078137;28;20621;-80
2023/10/22 05:53:54;;;;;;;0.10;0.10;;;15.60;99.90;;;;;;5078372;28;20095;-79
2023/10/22 05:56:23;;;;;;;0.10;0.10;;;15.70;99.90;;;;;;5078336;28;20398;-76
2023/10/22 05:58:49;;;;;;;0.10;0.10;;;15.70;99.90;;;;;;5078731;28;20028;-76
2023/10/22 06:01:14;;;;;;;0.10;0.10;;;15.80;99.90;;;;;;5077910;28;20031;-75
2023/10/22 06:03:40;;;;;;;0.10;0.10;;;15.80;99.90;;;;;;5078095;28;20205;-78
2023/10/22 06:06:06;;;;;;;0.10;0.10;;;15.70;99.90;;;;;;5078129;28;20425;-75
2023/10/22 06:08:32;;;;;;;15.32;11.35;;;16.00;99.90;;;;;;5079392;28;20485;-75
2023/10/22 06:10:58;;;;;;;2.70;2.50;;;16.00;99.90;;;;;;5079409;28;20518;-75
2023/10/22 06:13:23;;;;;;;0.10;0.10;;;15.90;99.90;;;;;;5079414;28;20597;-77
2023/10/22 06:15:55;;;;;;;0.10;0.10;;;15.90;99.90;;;;;;5078522;28;20020;-77
2023/10/22 06:18:20;;;;;;;0.13;0.13;;;15.90;99.90;;;;;;5077892;28;20407;-76
2023/10/22 06:20:46;;;;;;;0.10;0.10;;;15.90;99.90;;;;;;5077579;28;20573;-75
2023/10/22 06:23:12;;;;;;;0.10;0.10;;;15.80;99.90;;;;;;5077566;28;20478;-79
2023/10/22 06:25:38;;;;;;;0.10;0.10;;;16.00;99.90;;;;;;5077262;28;20335;-75
2023/10/22 06:28:04;;;;;;;0.10;0.10;;;15.90;99.90;;;;;;5077332;28;20510;-76
2023/10/22 06:30:29;;;;;;;0.10;0.10;;;16.00;99.90;;;;;;5077380;28;20394;-77
2023/10/22 06:32:56;;;;;;;0.10;0.10;;;16.00;99.90;;;;;;5077117;28;20282;-77
2023/10/22 06:35:26;;;;;;;0.73;0.73;;;16.10;99.90;;;;;;5076902;28;20028;-75
2023/10/22 06:37:52;;;;;;;0.10;0.10;;;18.70;99.90;;;;;;5077235;28;20111;-76
2023/10/22 06:40:19;;;;;;;0.10;0.10;;;16.20;99.90;;;;;;5077192;28;20040;-76
2023/10/22 06:42:45;;;;;;;0.10;0.10;;;16.20;99.90;;;;;;5076932;28;20028;-77
2023/10/22 06:45:11;;;;;;;0.10;0.10;;;16.30;99.90;;;;;;5077110;28;20077;-76
2023/10/22 06:47:37;;;;;;;0.68;0.68;;;16.40;99.90;;;;;;5077068;28;20320;-76
2023/10/22 06:50:05;;;;;;;0.15;0.15;;;16.40;99.90;;;;;;5076990;28;20028;-74
2023/10/22 06:52:31;;;;;;;0.10;0.10;;;16.40;99.90;;;;;;5077126;28;20020;-76
2023/10/22 06:54:56;;;;;;;0.10;0.10;;;16.50;99.90;;;;;;5077285;28;20099;-79
2023/10/22 06:57:22;;;;;;;0.10;0.10;;;16.60;99.90;;;;;;5077501;28;20081;-76
2023/10/22 06:59:48;;;;;;;0.10;0.10;;;16.70;99.90;;;;;;5058903;28;20044;-77
2023/10/22 07:02:16;;;;;;;0.10;0.10;;;16.90;99.90;;;;;;5077346;28;20116;-84
2023/10/22 07:04:42;;;;;;;0.20;0.20;;;17.00;99.90;;;;;;5077398;28;20514;-76
2023/10/22 07:07:08;;;;;;;0.00;0.00;;;17.10;99.90;;;;;;5076989;28;20024;-78
2023/10/22 07:09:34;;;;;;;0.47;0.47;;;17.00;99.90;;;;;;5077061;28;20024;-81
2023/10/22 07:12:00;;;;;;;0.10;0.10;;;17.10;99.90;;;;;;5076985;28;20228;-76
2023/10/22 07:14:26;;;;;;;0.10;0.10;;;17.20;99.90;;;;;;5076843;28;20491;-76
2023/10/22 07:16:52;;;;;;;0.10;0.10;;;17.30;99.90;;;;;;5078835;28;20438;-76
2023/10/22 07:19:18;;;;;;;0.10;0.10;;;17.40;99.90;;;;;;5080340;28;20115;-75
2023/10/22 07:21:44;;;;;;;0.10;0.10;;;17.50;99.90;;;;;;5081128;28;20446;-80
2023/10/22 07:24:10;;;;;;;0.00;0.00;;;17.60;99.90;;;;;;5081069;28;20366;-77
2023/10/22 07:26:36;;;;;;;3.03;2.92;;;17.60;99.90;;;;;;5080616;28;20411;-79
2023/10/22 07:29:01;;;;;;;0.10;0.10;;;18.30;99.90;;;;;;5080720;28;20044;-77
2023/10/22 07:31:27;;;;;;;0.10;0.10;;;17.80;99.90;;;;;;5080510;28;20204;-77
2023/10/22 07:33:53;;;;;;;0.10;0.10;;;17.90;99.90;;;;;;5080686;28;20032;-83
2023/10/22 07:36:18;;;;;;;0.08;0.08;;;18.10;99.90;;;;;;5062658;28;20327;-83
2023/10/22 07:38:44;;;;;;;1.35;1.35;;;18.20;99.90;;;;;;5080578;28;20051;-79
2023/10/22 07:41:14;;;;;;;7.38;7.03;;;18.30;99.90;;;;;;5062193;28;20032;-75
2023/10/22 07:43:40;;;;;;;0.10;0.10;;;18.40;99.90;;;;;;5080465;28;20081;-77
2023/10/22 07:46:07;;;;;;;0.03;0.03;;;18.60;99.90;;;;;;5081208;28;20436;-81
2023/10/22 07:48:33;;;;;;;2.65;2.50;;;18.70;99.90;;;;;;5082844;28;20047;-83
2023/10/22 07:51:08;;;;;;;0.10;0.10;;;18.80;99.90;;;;;;5083694;28;20040;-76
2023/10/22 07:53:34;;;;;;;0.00;0.00;;;18.90;99.90;;;;;;5083909;28;20024;-76
2023/10/22 07:56:00;;;;;;;0.10;0.10;;;21.00;99.90;;;;;;5084033;28;20533;-76
2023/10/22 07:58:26;;;;;;;0.03;0.03;;;19.10;99.90;;;;;;5062367;28;20117;-76
2023/10/22 08:00:51;;;;;;;0.57;0.57;;;19.30;99.90;;;;;;5081295;28;20059;-85
2023/10/22 08:03:19;;;;;;;0.10;0.10;;;19.40;99.90;;;;;;5080952;28;20024;-77
2023/10/22 08:05:45;;;;;;;0.43;0.43;;;19.50;99.90;;;;;;5081566;28;20089;-86
2023/10/22 08:08:11;;;;;;;0.00;0.00;;;19.50;99.90;;;;;;5081439;28;20020;-80
2023/10/22 08:10:37;;;;;;;0.00;0.00;;;19.60;99.90;;;;;;5080619;28;20078;-77
2023/10/22 08:13:02;;;;;;;0.55;0.55;;;19.70;99.90;;;;;;5079770;28;20016;-79
2023/10/22 08:15:28;;;;;;;0.10;0.10;;;20.30;99.90;;;;;;5080414;28;20448;-76
2023/10/22 08:17:54;;;;;;;0.10;0.10;;;19.90;99.90;;;;;;5080229;28;20282;-85
2023/10/22 08:20:20;;;;;;;0.00;0.00;;;19.90;99.90;;;;;;5061211;28;20048;-76
2023/10/22 08:22:45;;;;;;;0.32;0.32;;;19.90;99.90;;;;;;5080220;28;20195;-81
2023/10/22 08:25:11;;;;;;;0.10;0.10;;;19.90;99.90;;;;;;5079944;28;20031;-77
2023/10/22 08:27:37;;;;;;;0.10;0.10;;;20.00;99.90;;;;;;5079469;28;20020;-76
2023/10/22 08:30:03;;;;;;;0.10;0.10;;;20.00;99.90;;;;;;5079688;28;20514;-78
2023/10/22 08:32:29;;;;;;;2.30;1.17;;;20.10;99.90;;;;;;5079818;28;20071;-82
2023/10/22 08:34:55;;;;;;;0.10;0.10;;;20.10;99.90;;;;;;5061653;28;20043;-77
2023/10/22 08:37:21;;;;;;;0.10;0.10;;;18.40;99.90;;;;;;5079524;28;20494;-81
2023/10/22 08:39:46;;;;;;;0.10;0.10;;;20.20;99.90;;;;;;5079468;28;20028;-76
2023/10/22 08:42:19;;;;;;;0.10;0.10;;;20.30;99.90;;;;;;5079256;28;20647;-76
2023/10/22 08:44:48;;;;;;;0.00;0.00;;;20.30;99.90;;;;;;5079369;28;20278;-79
2023/10/22 08:47:14;;;;;;;0.10;0.10;;;20.40;99.90;;;;;;5079025;28;20024;-76
2023/10/22 08:49:40;;;;;;;0.00;0.00;;;20.30;99.90;;;;;;5060706;28;20028;-79
2023/10/22 08:52:10;;;;;;;0.57;0.55;;;20.40;99.90;;;;;;5079655;28;20024;-76
2023/10/22 08:54:37;;;;;;;18.88;2.85;;;20.40;99.90;;;;;;5061068;28;20127;-76
2023/10/22 08:57:03;;;;;;;2.55;2.35;;;20.30;99.90;;;;;;5061294;28;20244;-77
2023/10/22 08:59:29;;;;;;;9.32;4.47;;;20.20;99.90;;;;;;5079100;28;20124;-77
2023/10/22 09:01:56;;;;;;;0.10;0.10;;;20.40;99.90;;;;;;5078896;28;20362;-77
2023/10/22 09:04:23;;;;;;;0.20;0.20;;;21.10;99.90;;;;;;5080076;28;20034;-77
2023/10/22 09:06:53;;;;;;;6.32;5.55;;;20.70;99.90;;;;;;5079346;28;20024;-88
2023/10/22 09:09:33;;;;;;;0.10;0.10;;;20.60;99.90;;;;;;5044623;28;20505;-75
2023/10/22 09:12:00;;;;;;;0.10;0.10;;;20.80;99.90;;;;;;5079133;28;20490;-76
2023/10/22 09:14:26;;;;;;;0.13;0.13;;;20.80;99.90;;;;;;5079596;28;20378;-77
2023/10/22 09:16:52;;;;;;;0.10;0.10;;;20.70;99.90;;;;;;5061045;28;20332;-76
2023/10/22 09:19:37;;;;;;;0.10;0.10;;;20.80;99.90;;;;;;5079178;28;20347;-75
2023/10/22 09:22:06;;;;;;;0.10;0.10;;;20.60;99.90;;;;;;5060470;28;20327;-77
2023/10/22 09:24:34;;;;;;;0.10;0.10;;;20.60;99.90;;;;;;5078822;28;20399;-75
2023/10/22 09:27:00;;;;;;;0.10;0.10;;;20.70;99.90;;;;;;5078153;28;20169;-78
2023/10/22 09:29:26;;;;;;;0.10;0.10;;;20.80;99.90;;;;;;5078773;28;20596;-82
2023/10/22 09:31:54;;;;;;;0.10;0.10;;;20.90;99.90;;;;;;5060511;28;20167;-76
2023/10/22 09:34:38;;;;;;;0.10;0.10;;;20.80;99.90;;;;;;5059902;28;20525;-77
2023/10/22 09:37:03;;;;;;;0.10;0.10;;;21.00;99.90;;;;;;5078447;28;20020;-77
2023/10/22 09:39:37;;;;;;;0.10;0.10;;;21.10;99.90;;;;;;5077667;28;20031;-76
2023/10/22 09:42:04;;;;;;;0.43;0.43;;;21.10;99.90;;;;;;5078675;28;20540;-76
2023/10/22 09:44:34;;;;;;;1.40;1.40;;;21.00;99.90;;;;;;5078350;28;20041;-77
2023/10/22 09:47:06;;;;;;;0.10;0.10;;;21.00;99.90;;;;;;5078593;28;20305;-77
2023/10/22 09:49:35;;;;;;;0.20;0.20;;;21.10;99.90;;;;;;5078227;28;20213;-86
2023/10/22 09:52:03;;;;;;;0.10;0.10;;;21.30;99.90;;;;;;5078351;28;20051;-77
2023/10/22 09:54:39;;;;;;;0.10;0.10;;;21.40;99.90;;;;;;5077901;28;20020;-76
2023/10/22 09:57:14;;;;;;;0.25;0.25;;;21.50;99.90;;;;;;5077715;28;20119;-76
2023/10/22 09:59:44;;;;;;;0.10;0.10;;;21.70;99.90;;;;;;5077743;28;20089;-77
2023/10/22 10:02:15;;;;;;;0.10;0.10;;;21.70;99.90;;;;;;5077756;28;20021;-75
2023/10/22 10:04:43;;;;;;;0.10;0.10;;;21.60;99.90;;;;;;5077784;28;20016;-76
2023/10/22 10:07:09;;;;;;;1.52;1.48;;;;;;;;;;5078014;28;20513;-77
2023/10/22 10:09:36;;;;;;;0.10;0.10;;;21.50;99.90;;;;;;5077509;28;20321;-77
2023/10/22 10:12:12;;;;;;;0.10;0.10;;;21.40;99.90;;;;;;5077653;28;20696;-77
2023/10/22 10:14:48;;;;;;;0.10;0.10;;;21.40;99.90;;;;;;5059290;28;20426;-77
2023/10/22 10:17:15;;;;;;;0.10;0.10;;;21.20;99.90;;;;;;5077761;28;20023;-75
2023/10/22 10:19:41;;;;;;;0.10;0.10;;;21.20;99.90;;;;;;5077708;28;20017;-76
2023/10/22 10:22:08;;;;;;;0.10;0.10;;;21.10;99.90;;;;;;5077649;28;20262;-77
2023/10/22 10:24:34;;;;;;;0.10;0.10;;;21.30;99.90;;;;;;5077614;28;20077;-76
2023/10/22 10:27:00;;;;;;;0.10;0.10;;;21.20;99.90;;;;;;5077137;28;20287;-76
2023/10/22 10:29:28;;;;;;;4.22;4.03;;;21.10;99.90;;;;;;5077640;28;20028;-81
2023/10/22 10:31:56;;;;;;;0.10;0.10;;;21.10;99.90;;;;;;5077165;28;20020;-77
2023/10/22 10:34:43;;;;;;;0.10;0.10;;;21.20;99.90;;;;;;5077448;28;20042;-79
2023/10/22 10:37:17;;;;;;;0.10;0.10;;;21.20;99.90;;;;;;5059039;28;20012;-76
2023/10/22 10:39:52;;;;;;;0.10;0.10;;;21.10;99.90;;;;;;5058686;28;20047;-77
2023/10/22 10:42:33;;;;;;;0.13;0.13;;;21.10;99.90;;;;;;5077012;28;20110;-77
2023/10/22 10:45:00;;;;;;;0.10;0.10;;;21.10;99.90;;;;;;5059023;28;20559;-76
2023/10/22 10:47:30;;;;;;;0.10;0.10;;;18.50;99.90;;;;;;5076987;28;20025;-77
2023/10/22 10:50:17;;;;;;;0.10;0.10;;;21.30;99.90;;;;;;5077275;28;20096;-83
2023/10/22 10:52:46;;;;;;;0.50;0.50;;;21.30;99.90;;;;;;5064132;28;20535;-82
2023/10/22 10:55:14;;;;;;;0.10;0.10;;;21.30;99.90;;;;;;5081648;28;20013;-76
2023/10/22 10:57:41;;;;;;;0.10;0.10;;;21.30;99.90;;;;;;5081393;28;20059;-76
2023/10/22 11:00:09;;;;;;;1.15;1.15;;;21.30;99.90;;;;;;5081129;28;20036;-75
2023/10/22 11:02:43;;;;;;;0.10;0.10;;;20.70;99.90;;;;;;5061896;28;20601;-76
2023/10/22 11:05:10;;;;;;;0.10;0.10;;;21.30;99.90;;;;;;5081165;28;20067;-75
2023/10/22 11:07:43;;;;;;;0.10;0.10;;;21.30;99.90;;;;;;5081207;28;20012;-76
2023/10/22 11:10:16;;;;;;;0.10;0.10;;;21.30;99.90;;;;;;5081558;28;20163;-74
2023/10/22 11:12:43;;;;;;;0.10;0.10;;;21.30;99.90;;;;;;5081061;28;20290;-78
2023/10/22 11:15:10;;;;;;;0.10;0.10;;;21.30;99.90;;;;;;5081104;28;20051;-74
2023/10/22 11:17:44;;;;;;;0.10;0.10;;;21.30;99.90;;;;;;5063572;28;20023;-74
2023/10/22 11:20:13;;;;;;;0.10;0.10;;;21.60;99.90;;;;;;5081852;28;20387;-75
2023/10/22 11:22:39;;;;;;;0.10;0.10;;;21.80;99.90;;;;;;5082536;28;20339;-75
2023/10/22 11:25:09;;;;;;;0.10;0.10;;;21.90;99.90;;;;;;5083692;28;20347;-76
2023/10/22 11:27:39;;;;;;;0.10;0.10;;;22.00;99.90;;;;;;5081423;28;20018;-75
2023/10/22 11:30:06;;;;;;;0.10;0.10;;;22.20;99.90;;;;;;5081513;28;20032;-76
2023/10/22 11:32:34;;;;;;;0.10;0.10;;;22.30;99.60;;;;;;5080614;28;20081;-75
2023/10/22 11:35:02;;;;;;;0.10;0.10;;;;;;;;;;5062299;28;20070;-75
2023/10/22 11:37:41;;;;;;;0.10;0.10;;;22.60;99.00;;;;;;5080914;28;20410;-80
2023/10/22 11:40:28;;;;;;;0.10;0.10;;;22.70;98.40;;;;;;5080523;28;20078;-75
2023/10/22 11:43:02;;;;;;;0.10;0.10;;;22.70;98.60;;;;;;5080706;28;20016;-75
2023/10/22 11:45:40;;;;;;;0.10;0.10;;;22.40;98.50;;;;;;5063008;28;20107;-76
2023/10/22 11:48:14;;;;;;;0.10;0.10;;;22.40;98.70;;;;;;5080290;28;20111;-76
2023/10/22 11:50:44;;;;;;;0.10;0.10;;;22.30;98.60;;;;;;5080393;28;20446;-77
2023/10/22 11:53:10;;;;;;;0.10;0.10;;;22.40;98.30;;;;;;5080064;28;20040;-75
2023/10/22 11:55:36;;;;;;;0.10;0.10;;;22.40;98.70;;;;;;5080508;28;20289;-75
2023/10/22 11:58:03;;;;;;;0.10;0.10;;;22.50;98.60;;;;;;5062293;28;20028;-75
2023/10/22 12:00:28;;;;;;;0.75;0.75;;;22.50;98.60;;;;;;5061916;28;20047;-77
2023/10/22 12:02:54;;;;;;;0.10;0.10;;;22.30;98.50;;;;;;5079226;28;20016;-76
2023/10/22 12:05:20;;;;;;;0.00;0.00;;;22.30;98.60;;;;;;5061855;28;20228;-76
2023/10/22 12:07:46;;;;;;;0.55;0.55;;;22.20;98.30;;;;;;5080549;28;20017;-75
2023/10/22 12:10:12;;;;;;;0.10;0.10;;;22.90;98.60;;;;;;5080015;28;20024;-76
2023/10/22 12:12:38;;;;;;;0.13;0.13;;;22.10;98.60;;;;;;5061912;28;20145;-76
2023/10/22 12:15:05;;;;;;;0.10;0.10;;;22.20;98.80;;;;;;5080010;28;20020;-75
2023/10/22 12:17:31;;;;;;;0.10;0.10;;;22.20;97.90;;;;;;5080093;28;20024;-75
2023/10/22 12:19:57;;;;;;;0.10;0.10;;;22.10;98.50;;;;;;5079984;28;20373;-83
2023/10/22 12:22:23;;;;;;;0.10;0.10;;;22.10;98.50;;;;;;5079993;28;20456;-78
2023/10/22 12:24:51;;;;;;;0.10;0.10;;;22.20;98.30;;;;;;5080812;28;20024;-75
2023/10/22 12:27:16;;;;;;;0.90;0.90;;;22.30;98.30;;;;;;5079934;28;20438;-75
2023/10/22 12:29:42;;;;;;;0.10;0.10;;;22.00;98.30;;;;;;5079571;28;20052;-77
2023/10/22 12:32:08;;;;;;;0.10;0.10;;;22.20;98.30;;;;;;5079599;28;20036;-75
2023/10/22 12:34:34;;;;;;;1.65;1.65;;;22.70;98.80;;;;;;5061766;28;20016;-76
2023/10/22 12:37:00;;;;;;;2.65;2.55;;;22.10;98.30;;;;;;5079782;28;20052;-75
2023/10/22 12:39:25;;;;;;;0.10;0.10;;;22.20;98.40;;;;;;5062291;28;20032;-75
2023/10/22 12:41:51;;;;;;;0.10;0.10;;;22.30;98.20;;;;;;5079696;28;20038;-77
2023/10/22 12:44:18;;;;;;;0.10;0.10;;;22.60;98.20;;;;;;5079890;28;20490;-79
2023/10/22 12:46:44;;;;;;;0.10;0.10;;;22.80;97.60;;;;;;5079233;28;20032;-76
2023/10/22 12:49:09;;;;;;;0.45;0.45;;;24.30;98.10;;;;;;5079693;28;20198;-75